sensor_id;sensor_type;location;lat;lon;timestamp;pressure;altitude;pressure_sealevel;temperature;humidity
7335;BME280;3708;42.632;23.378;2022-09-21T00:01:27;94440.00;;;14.04;47.69
7335;BME280;3708;42.632;23.378;2022-09-21T00:03:55;94444.25;;;14.09;47.12
7335;BME280;3708;42.632;23.378;2022-09-21T00:06:24;94451.84;;;14.10;47.30
7335;BME280;3708;42.632;23.378;2022-09-21T00:08:51;94452.38;;;14.16;47.31
7335;BME280;3708;42.632;23.378;2022-09-21T00:11:20;94451.88;;;13.98;47.65
7335;BME280;3708;42.632;23.378;2022-09-21T00:13:51;94453.22;;;13.92;47.75
7335;BME280;3708;42.632;23.378;2022-09-21T00:16:18;94460.81;;;13.69;47.85
7335;BME280;3708;42.632;23.378;2022-09-21T00:18:46;94458.75;;;13.75;47.96
7335;BME280;3708;42.632;23.378;2022-09-21T00:21:14;94458.00;;;13.50;47.97
7335;BME280;3708;42.632;23.378;2022-09-21T00:23:43;94449.34;;;13.62;48.02
7335;BME280;3708;42.632;23.378;2022-09-21T00:26:11;94452.63;;;13.59;47.16
7335;BME280;3708;42.632;23.378;2022-09-21T00:28:39;94452.00;;;13.38;47.81
7335;BME280;3708;42.632;23.378;2022-09-21T00:31:08;94453.72;;;13.46;47.90
7335;BME280;3708;42.632;23.378;2022-09-21T00:33:37;94448.03;;;13.44;47.56
7335;BME280;3708;42.632;23.378;2022-09-21T00:36:08;94447.50;;;13.26;47.64
7335;BME280;3708;42.632;23.378;2022-09-21T00:38:36;94443.00;;;13.27;47.70
7335;BME280;3708;42.632;23.378;2022-09-21T00:41:05;94451.47;;;13.08;48.28
7335;BME280;3708;42.632;23.378;2022-09-21T00:43:32;94443.31;;;13.01;48.72
7335;BME280;3708;42.632;23.378;2022-09-21T00:46:02;94443.66;;;13.12;48.44
7335;BME280;3708;42.632;23.378;2022-09-21T00:48:30;94448.94;;;13.12;48.58
7335;BME280;3708;42.632;23.378;2022-09-21T00:51:01;94443.84;;;12.94;48.88
7335;BME280;3708;42.632;23.378;2022-09-21T00:53:30;94437.72;;;12.90;49.20
7335;BME280;3708;42.632;23.378;2022-09-21T00:55:58;94437.72;;;13.02;49.14
7335;BME280;3708;42.632;23.378;2022-09-21T00:58:28;94436.66;;;13.16;48.89
7335;BME280;3708;42.632;23.378;2022-09-21T01:00:57;94443.56;;;13.20;49.16
7335;BME280;3708;42.632;23.378;2022-09-21T01:03:25;94437.09;;;13.30;49.00
7335;BME280;3708;42.632;23.378;2022-09-21T01:05:53;94435.25;;;13.30;48.77
7335;BME280;3708;42.632;23.378;2022-09-21T01:08:21;94435.78;;;13.24;48.52
7335;BME280;3708;42.632;23.378;2022-09-21T01:11:06;94437.09;;;13.06;48.90
7335;BME280;3708;42.632;23.378;2022-09-21T01:13:48;94435.56;;;13.05;49.07
7335;BME280;3708;42.632;23.378;2022-09-21T01:16:20;94437.53;;;13.08;48.81
7335;BME280;3708;42.632;23.378;2022-09-21T01:18:52;94441.63;;;12.60;50.01
7335;BME280;3708;42.632;23.378;2022-09-21T01:21:24;94433.75;;;12.72;50.11
7335;BME280;3708;42.632;23.378;2022-09-21T01:24:13;94443.03;;;12.58;50.38
7335;BME280;3708;42.632;23.378;2022-09-21T01:30:04;94434.41;;;12.81;50.37
7335;BME280;3708;42.632;23.378;2022-09-21T01:32:36;94425.88;;;12.84;50.00
7335;BME280;3708;42.632;23.378;2022-09-21T01:35:08;94428.19;;;12.86;50.01
7335;BME280;3708;42.632;23.378;2022-09-21T01:37:40;94422.28;;;12.89;50.12
7335;BME280;3708;42.632;23.378;2022-09-21T01:40:13;94416.03;;;12.93;49.98
7335;BME280;3708;42.632;23.378;2022-09-21T01:42:43;94420.41;;;13.01;49.75
7335;BME280;3708;42.632;23.378;2022-09-21T01:45:15;94419.09;;;12.95;49.86
7335;BME280;3708;42.632;23.378;2022-09-21T01:47:45;94422.44;;;13.05;49.91
7335;BME280;3708;42.632;23.378;2022-09-21T01:50:16;94419.56;;;13.10;49.81
7335;BME280;3708;42.632;23.378;2022-09-21T01:52:47;94422.47;;;12.96;49.70
7335;BME280;3708;42.632;23.378;2022-09-21T01:55:18;94416.78;;;12.82;50.20
7335;BME280;3708;42.632;23.378;2022-09-21T01:57:53;94419.84;;;12.72;50.38
7335;BME280;3708;42.632;23.378;2022-09-21T02:00:23;94421.06;;;12.74;50.51
7335;BME280;3708;42.632;23.378;2022-09-21T02:02:52;94417.97;;;12.72;50.81
7335;BME280;3708;42.632;23.378;2022-09-21T02:05:25;94410.19;;;12.64;51.35
7335;BME280;3708;42.632;23.378;2022-09-21T02:07:53;94411.06;;;12.56;51.39
7335;BME280;3708;42.632;23.378;2022-09-21T02:10:25;94412.72;;;12.60;50.95
7335;BME280;3708;42.632;23.378;2022-09-21T02:12:56;94421.22;;;12.57;51.41
7335;BME280;3708;42.632;23.378;2022-09-21T02:15:31;94431.00;;;12.57;51.45
7335;BME280;3708;42.632;23.378;2022-09-21T02:18:05;94432.00;;;12.64;51.69
7335;BME280;3708;42.632;23.378;2022-09-21T02:20:38;94427.81;;;12.18;51.98
7335;BME280;3708;42.632;23.378;2022-09-21T02:23:11;94427.69;;;12.15;52.28
7335;BME280;3708;42.632;23.378;2022-09-21T02:25:47;94429.16;;;12.24;52.34
7335;BME280;3708;42.632;23.378;2022-09-21T02:28:22;94421.47;;;12.19;52.69
7335;BME280;3708;42.632;23.378;2022-09-21T02:30:57;94432.75;;;12.20;52.67
7335;BME280;3708;42.632;23.378;2022-09-21T02:33:30;94437.50;;;12.06;52.52
7335;BME280;3708;42.632;23.378;2022-09-21T02:36:04;94434.28;;;11.68;53.62
7335;BME280;3708;42.632;23.378;2022-09-21T02:38:37;94434.84;;;11.94;53.56
7335;BME280;3708;42.632;23.378;2022-09-21T02:41:12;94424.81;;;12.08;53.09
7335;BME280;3708;42.632;23.378;2022-09-21T02:43:44;94429.47;;;12.23;52.96
7335;BME280;3708;42.632;23.378;2022-09-21T02:46:20;94431.38;;;12.35;52.60
7335;BME280;3708;42.632;23.378;2022-09-21T02:48:50;94436.63;;;12.02;53.00
7335;BME280;3708;42.632;23.378;2022-09-21T02:51:22;94433.66;;;12.24;52.55
7335;BME280;3708;42.632;23.378;2022-09-21T02:53:52;94446.34;;;12.01;52.90
7335;BME280;3708;42.632;23.378;2022-09-21T02:56:20;94438.38;;;11.27;54.86
7335;BME280;3708;42.632;23.378;2022-09-21T02:58:51;94444.50;;;10.73;57.04
7335;BME280;3708;42.632;23.378;2022-09-21T03:01:22;94434.31;;;11.09;56.20
7335;BME280;3708;42.632;23.378;2022-09-21T03:03:50;94438.19;;;11.03;56.11
7335;BME280;3708;42.632;23.378;2022-09-21T03:06:17;94441.34;;;11.17;56.21
7335;BME280;3708;42.632;23.378;2022-09-21T03:08:44;94443.25;;;11.37;55.42
7335;BME280;3708;42.632;23.378;2022-09-21T03:11:15;94438.34;;;11.57;55.05
7335;BME280;3708;42.632;23.378;2022-09-21T03:13:42;94440.34;;;11.60;55.00
7335;BME280;3708;42.632;23.378;2022-09-21T03:16:09;94435.53;;;11.62;54.93
7335;BME280;3708;42.632;23.378;2022-09-21T03:18:38;94439.56;;;11.80;54.77
7335;BME280;3708;42.632;23.378;2022-09-21T03:21:07;94429.19;;;11.63;54.49
7335;BME280;3708;42.632;23.378;2022-09-21T03:23:34;94438.69;;;11.76;54.57
7335;BME280;3708;42.632;23.378;2022-09-21T03:26:01;94429.31;;;11.66;54.45
7335;BME280;3708;42.632;23.378;2022-09-21T03:28:28;94433.00;;;11.74;54.13
7335;BME280;3708;42.632;23.378;2022-09-21T03:30:55;94437.69;;;11.39;54.80
7335;BME280;3708;42.632;23.378;2022-09-21T03:33:22;94437.06;;;11.13;55.46
7335;BME280;3708;42.632;23.378;2022-09-21T03:35:51;94441.19;;;11.22;55.66
7335;BME280;3708;42.632;23.378;2022-09-21T03:38:19;94434.81;;;11.32;54.99
7335;BME280;3708;42.632;23.378;2022-09-21T03:40:47;94442.13;;;10.89;56.11
7335;BME280;3708;42.632;23.378;2022-09-21T03:43:14;94444.81;;;10.71;57.17
7335;BME280;3708;42.632;23.378;2022-09-21T03:45:42;94440.00;;;11.11;56.47
7335;BME280;3708;42.632;23.378;2022-09-21T03:48:10;94446.13;;;11.15;56.24
7335;BME280;3708;42.632;23.378;2022-09-21T03:50:37;94445.13;;;11.08;56.08
7335;BME280;3708;42.632;23.378;2022-09-21T03:53:06;94441.63;;;10.95;56.39
7335;BME280;3708;42.632;23.378;2022-09-21T03:55:33;94442.25;;;11.21;61.02
7335;BME280;3708;42.632;23.378;2022-09-21T03:58:00;94443.41;;;11.62;59.16
7335;BME280;3708;42.632;23.378;2022-09-21T04:00:27;94447.81;;;11.49;56.38
7335;BME280;3708;42.632;23.378;2022-09-21T04:02:55;94456.19;;;11.63;55.59
7335;BME280;3708;42.632;23.378;2022-09-21T04:05:22;94444.72;;;11.76;54.89
7335;BME280;3708;42.632;23.378;2022-09-21T04:07:49;94445.69;;;11.63;54.75
7335;BME280;3708;42.632;23.378;2022-09-21T04:10:19;94453.72;;;11.67;54.54
7335;BME280;3708;42.632;23.378;2022-09-21T04:12:52;94449.53;;;11.66;54.62
7335;BME280;3708;42.632;23.378;2022-09-21T04:15:22;94443.72;;;11.60;54.96
7335;BME280;3708;42.632;23.378;2022-09-21T04:17:49;94450.56;;;11.52;54.82
7335;BME280;3708;42.632;23.378;2022-09-21T04:20:17;94451.84;;;11.46;54.92
7335;BME280;3708;42.632;23.378;2022-09-21T04:22:44;94452.97;;;11.37;55.19
7335;BME280;3708;42.632;23.378;2022-09-21T04:25:11;94453.22;;;11.23;55.68
7335;BME280;3708;42.632;23.378;2022-09-21T04:27:40;94453.22;;;11.23;55.86
7335;BME280;3708;42.632;23.378;2022-09-21T04:30:09;94451.94;;;11.29;55.81
7335;BME280;3708;42.632;23.378;2022-09-21T04:32:36;94449.50;;;11.24;55.82
7335;BME280;3708;42.632;23.378;2022-09-21T04:35:03;94459.03;;;10.91;56.94
7335;BME280;3708;42.632;23.378;2022-09-21T04:37:30;94459.34;;;10.98;56.90
7335;BME280;3708;42.632;23.378;2022-09-21T04:39:57;94449.09;;;10.76;57.89
7335;BME280;3708;42.632;23.378;2022-09-21T04:42:24;94454.53;;;11.00;57.49
7335;BME280;3708;42.632;23.378;2022-09-21T04:44:53;94458.75;;;10.93;57.84
7335;BME280;3708;42.632;23.378;2022-09-21T04:47:20;94457.28;;;11.12;57.26
7335;BME280;3708;42.632;23.378;2022-09-21T04:49:49;94454.66;;;11.12;56.92
7335;BME280;3708;42.632;23.378;2022-09-21T04:52:16;94451.84;;;11.46;56.41
7335;BME280;3708;42.632;23.378;2022-09-21T04:54:43;94455.97;;;11.47;55.94
7335;BME280;3708;42.632;23.378;2022-09-21T04:57:31;94455.19;;;11.56;55.37
7335;BME280;3708;42.632;23.378;2022-09-21T05:00:03;94451.44;;;11.57;55.54
7335;BME280;3708;42.632;23.378;2022-09-21T05:02:34;94459.72;;;11.46;56.00
7335;BME280;3708;42.632;23.378;2022-09-21T05:05:08;94458.50;;;11.65;56.20
7335;BME280;3708;42.632;23.378;2022-09-21T05:07:38;94452.41;;;11.81;55.54
7335;BME280;3708;42.632;23.378;2022-09-21T05:10:07;94461.56;;;11.75;55.48
7335;BME280;3708;42.632;23.378;2022-09-21T05:12:34;94461.50;;;11.84;55.26
7335;BME280;3708;42.632;23.378;2022-09-21T05:15:03;94467.25;;;11.98;55.24
7335;BME280;3708;42.632;23.378;2022-09-21T05:17:30;94460.94;;;12.11;54.87
7335;BME280;3708;42.632;23.378;2022-09-21T05:19:57;94453.47;;;12.34;54.78
7335;BME280;3708;42.632;23.378;2022-09-21T05:22:24;94466.06;;;12.40;54.40
7335;BME280;3708;42.632;23.378;2022-09-21T05:24:50;94461.50;;;12.49;53.62
7335;BME280;3708;42.632;23.378;2022-09-21T05:27:17;94457.09;;;12.29;53.88
7335;BME280;3708;42.632;23.378;2022-09-21T05:29:45;94461.78;;;11.82;55.81
7335;BME280;3708;42.632;23.378;2022-09-21T05:32:19;94470.00;;;11.81;56.25
7335;BME280;3708;42.632;23.378;2022-09-21T05:34:58;94462.00;;;11.98;55.90
7335;BME280;3708;42.632;23.378;2022-09-21T05:37:38;94463.25;;;12.12;55.65
7335;BME280;3708;42.632;23.378;2022-09-21T05:40:09;94458.88;;;12.37;55.55
7335;BME280;3708;42.632;23.378;2022-09-21T05:42:37;94466.13;;;12.52;55.11
7335;BME280;3708;42.632;23.378;2022-09-21T05:45:05;94466.75;;;12.37;55.76
7335;BME280;3708;42.632;23.378;2022-09-21T05:47:38;94465.94;;;12.69;55.22
7335;BME280;3708;42.632;23.378;2022-09-21T05:50:19;94464.00;;;12.78;55.28
7335;BME280;3708;42.632;23.378;2022-09-21T05:52:54;94464.88;;;12.82;54.68
7335;BME280;3708;42.632;23.378;2022-09-21T05:55:38;94467.72;;;12.77;54.61
7335;BME280;3708;42.632;23.378;2022-09-21T05:58:13;94461.66;;;12.65;54.41
7335;BME280;3708;42.632;23.378;2022-09-21T06:00:51;94467.44;;;12.58;54.92
7335;BME280;3708;42.632;23.378;2022-09-21T06:03:28;94458.72;;;12.66;54.88
7335;BME280;3708;42.632;23.378;2022-09-21T06:05:55;94467.94;;;12.84;54.47
7335;BME280;3708;42.632;23.378;2022-09-21T06:08:23;94473.66;;;12.86;53.95
7335;BME280;3708;42.632;23.378;2022-09-21T06:10:50;94462.50;;;13.01;53.71
7335;BME280;3708;42.632;23.378;2022-09-21T06:13:17;94469.41;;;13.18;53.24
7335;BME280;3708;42.632;23.378;2022-09-21T06:15:44;94476.34;;;13.11;53.73
7335;BME280;3708;42.632;23.378;2022-09-21T06:18:11;94473.94;;;13.30;53.37
7335;BME280;3708;42.632;23.378;2022-09-21T06:20:39;94476.53;;;13.42;52.40
7335;BME280;3708;42.632;23.378;2022-09-21T06:23:08;94469.31;;;13.51;52.64
7335;BME280;3708;42.632;23.378;2022-09-21T06:25:35;94472.69;;;13.63;52.19
7335;BME280;3708;42.632;23.378;2022-09-21T06:28:03;94466.69;;;13.39;52.37
7335;BME280;3708;42.632;23.378;2022-09-21T06:30:30;94480.47;;;13.60;52.41
7335;BME280;3708;42.632;23.378;2022-09-21T06:32:59;94476.97;;;13.56;52.27
7335;BME280;3708;42.632;23.378;2022-09-21T06:35:27;94477.03;;;13.84;52.20
7335;BME280;3708;42.632;23.378;2022-09-21T06:37:58;94485.47;;;13.89;51.41
7335;BME280;3708;42.632;23.378;2022-09-21T06:40:25;94481.25;;;14.12;50.92
7335;BME280;3708;42.632;23.378;2022-09-21T06:42:56;94487.81;;;14.18;50.61
7335;BME280;3708;42.632;23.378;2022-09-21T06:45:24;94488.50;;;14.03;50.28
7335;BME280;3708;42.632;23.378;2022-09-21T06:47:51;94492.75;;;13.80;50.82
7335;BME280;3708;42.632;23.378;2022-09-21T06:50:18;94493.53;;;14.08;50.14
7335;BME280;3708;42.632;23.378;2022-09-21T06:52:46;94491.06;;;14.39;50.24
7335;BME280;3708;42.632;23.378;2022-09-21T06:55:14;94488.41;;;14.39;50.28
7335;BME280;3708;42.632;23.378;2022-09-21T06:57:41;94487.25;;;14.52;50.25
7335;BME280;3708;42.632;23.378;2022-09-21T07:00:10;94492.47;;;14.65;49.88
7335;BME280;3708;42.632;23.378;2022-09-21T07:02:42;94485.75;;;14.00;49.40
7335;BME280;3708;42.632;23.378;2022-09-21T07:05:10;94498.34;;;14.18;50.28
7335;BME280;3708;42.632;23.378;2022-09-21T07:07:37;94494.69;;;13.95;49.92
7335;BME280;3708;42.632;23.378;2022-09-21T07:10:05;94490.50;;;13.94;50.11
7335;BME280;3708;42.632;23.378;2022-09-21T07:12:34;94501.97;;;13.62;50.61
7335;BME280;3708;42.632;23.378;2022-09-21T07:15:01;94495.63;;;13.15;51.34
7335;BME280;3708;42.632;23.378;2022-09-21T07:17:32;94489.91;;;13.49;50.69
7335;BME280;3708;42.632;23.378;2022-09-21T07:19:59;94492.09;;;13.23;51.85
7335;BME280;3708;42.632;23.378;2022-09-21T07:22:27;94490.84;;;12.96;51.92
7335;BME280;3708;42.632;23.378;2022-09-21T07:24:54;94490.56;;;12.53;52.83
7335;BME280;3708;42.632;23.378;2022-09-21T07:27:22;94490.03;;;12.27;53.62
7335;BME280;3708;42.632;23.378;2022-09-21T07:29:51;94488.78;;;12.24;54.09
7335;BME280;3708;42.632;23.378;2022-09-21T07:32:18;94507.91;;;12.45;53.89
7335;BME280;3708;42.632;23.378;2022-09-21T07:34:45;94501.13;;;12.11;54.78
7335;BME280;3708;42.632;23.378;2022-09-21T07:37:13;94501.69;;;11.96;55.34
7335;BME280;3708;42.632;23.378;2022-09-21T07:39:40;94487.47;;;12.18;54.63
7335;BME280;3708;42.632;23.378;2022-09-21T07:42:07;94504.81;;;12.31;54.44
7335;BME280;3708;42.632;23.378;2022-09-21T07:44:34;94502.19;;;12.31;55.21
7335;BME280;3708;42.632;23.378;2022-09-21T07:47:02;94495.94;;;12.68;54.54
7335;BME280;3708;42.632;23.378;2022-09-21T07:49:29;94494.97;;;12.40;54.65
7335;BME280;3708;42.632;23.378;2022-09-21T07:51:56;94491.31;;;12.20;56.33
7335;BME280;3708;42.632;23.378;2022-09-21T07:54:23;94498.84;;;12.01;55.89
7335;BME280;3708;42.632;23.378;2022-09-21T07:56:50;94491.34;;;12.65;53.88
7335;BME280;3708;42.632;23.378;2022-09-21T07:59:30;94501.00;;;12.85;54.40
7335;BME280;3708;42.632;23.378;2022-09-21T08:01:58;94497.53;;;12.93;53.14
7335;BME280;3708;42.632;23.378;2022-09-21T08:04:26;94516.31;;;12.71;54.04
7335;BME280;3708;42.632;23.378;2022-09-21T08:06:53;94501.53;;;12.79;54.10
7335;BME280;3708;42.632;23.378;2022-09-21T08:09:20;94495.56;;;13.02;53.94
7335;BME280;3708;42.632;23.378;2022-09-21T08:11:47;94499.44;;;13.05;53.89
7335;BME280;3708;42.632;23.378;2022-09-21T08:14:16;94489.38;;;13.43;51.95
7335;BME280;3708;42.632;23.378;2022-09-21T08:16:45;94488.75;;;13.98;50.17
7335;BME280;3708;42.632;23.378;2022-09-21T08:19:12;94480.69;;;13.55;50.99
7335;BME280;3708;42.632;23.378;2022-09-21T08:21:40;94487.22;;;13.97;50.22
7335;BME280;3708;42.632;23.378;2022-09-21T08:24:08;94493.13;;;13.94;50.18
7335;BME280;3708;42.632;23.378;2022-09-21T08:26:35;94502.84;;;13.30;52.10
7335;BME280;3708;42.632;23.378;2022-09-21T08:29:02;94492.97;;;13.63;50.77
7335;BME280;3708;42.632;23.378;2022-09-21T08:31:31;94492.31;;;13.66;51.07
7335;BME280;3708;42.632;23.378;2022-09-21T08:34:16;94492.56;;;13.49;50.93
7335;BME280;3708;42.632;23.378;2022-09-21T08:36:45;94493.31;;;13.49;50.79
7335;BME280;3708;42.632;23.378;2022-09-21T08:39:12;94482.03;;;13.49;51.09
7335;BME280;3708;42.632;23.378;2022-09-21T08:41:53;94492.09;;;13.23;51.53
7335;BME280;3708;42.632;23.378;2022-09-21T08:44:26;94485.75;;;13.24;52.19
7335;BME280;3708;42.632;23.378;2022-09-21T08:47:01;94486.94;;;13.50;52.10
7335;BME280;3708;42.632;23.378;2022-09-21T08:49:32;94481.94;;;13.97;50.71
7335;BME280;3708;42.632;23.378;2022-09-21T08:52:06;94483.28;;;14.59;49.11
7335;BME280;3708;42.632;23.378;2022-09-21T08:54:39;94471.81;;;14.11;49.72
7335;BME280;3708;42.632;23.378;2022-09-21T08:57:10;94474.75;;;13.82;51.22
7335;BME280;3708;42.632;23.378;2022-09-21T08:59:41;94474.00;;;14.09;50.14
7335;BME280;3708;42.632;23.378;2022-09-21T09:02:27;94469.97;;;14.83;47.24
7335;BME280;3708;42.632;23.378;2022-09-21T09:05:01;94472.09;;;14.22;48.76
7335;BME280;3708;42.632;23.378;2022-09-21T09:07:47;94478.81;;;13.67;49.94
7335;BME280;3708;42.632;23.378;2022-09-21T09:10:31;94464.38;;;14.01;49.58
7335;BME280;3708;42.632;23.378;2022-09-21T09:13:11;94456.66;;;14.64;47.90
7335;BME280;3708;42.632;23.378;2022-09-21T09:15:51;94457.69;;;14.59;47.65
7335;BME280;3708;42.632;23.378;2022-09-21T09:18:24;94458.72;;;15.33;45.40
7335;BME280;3708;42.632;23.378;2022-09-21T09:20:56;94456.13;;;14.42;46.77
7335;BME280;3708;42.632;23.378;2022-09-21T09:23:27;94454.97;;;14.56;46.37
7335;BME280;3708;42.632;23.378;2022-09-21T09:25:59;94446.81;;;14.76;47.27
7335;BME280;3708;42.632;23.378;2022-09-21T09:28:31;94437.38;;;15.72;45.43
7335;BME280;3708;42.632;23.378;2022-09-21T09:31:03;94439.16;;;14.87;45.28
7335;BME280;3708;42.632;23.378;2022-09-21T09:33:45;94449.06;;;14.46;46.73
7335;BME280;3708;42.632;23.378;2022-09-21T09:36:15;94443.34;;;14.17;47.27
7335;BME280;3708;42.632;23.378;2022-09-21T09:38:47;94440.75;;;14.44;46.62
7335;BME280;3708;42.632;23.378;2022-09-21T09:41:49;94431.91;;;14.84;46.49
7335;BME280;3708;42.632;23.378;2022-09-21T09:44:42;94429.28;;;14.52;47.84
7335;BME280;3708;42.632;23.378;2022-09-21T09:47:21;94435.91;;;14.78;46.63
7335;BME280;3708;42.632;23.378;2022-09-21T09:50:00;94433.84;;;14.12;47.24
7335;BME280;3708;42.632;23.378;2022-09-21T09:52:30;94428.06;;;14.22;46.65
7335;BME280;3708;42.632;23.378;2022-09-21T09:54:59;94430.06;;;15.15;45.19
7335;BME280;3708;42.632;23.378;2022-09-21T09:57:28;94412.47;;;15.54;44.31
7335;BME280;3708;42.632;23.378;2022-09-21T09:59:58;94413.75;;;15.29;44.29
7335;BME280;3708;42.632;23.378;2022-09-21T10:02:28;94415.31;;;15.46;42.99
7335;BME280;3708;42.632;23.378;2022-09-21T10:04:57;94411.69;;;14.88;44.17
7335;BME280;3708;42.632;23.378;2022-09-21T10:07:33;94410.81;;;15.15;43.31
7335;BME280;3708;42.632;23.378;2022-09-21T10:10:09;94409.09;;;14.29;45.05
7335;BME280;3708;42.632;23.378;2022-09-21T10:12:48;94411.81;;;15.26;43.86
7335;BME280;3708;42.632;23.378;2022-09-21T10:15:16;94399.78;;;15.09;44.70
7335;BME280;3708;42.632;23.378;2022-09-21T10:17:44;94399.19;;;15.16;43.43
7335;BME280;3708;42.632;23.378;2022-09-21T10:20:15;94403.94;;;15.10;44.18
7335;BME280;3708;42.632;23.378;2022-09-21T10:22:45;94401.63;;;15.09;43.43
7335;BME280;3708;42.632;23.378;2022-09-21T10:25:16;94380.00;;;15.19;43.65
7335;BME280;3708;42.632;23.378;2022-09-21T10:27:47;94385.75;;;14.90;44.19
7335;BME280;3708;42.632;23.378;2022-09-21T10:30:32;94387.66;;;15.24;43.81
7335;BME280;3708;42.632;23.378;2022-09-21T10:32:59;94373.22;;;14.87;43.91
7335;BME280;3708;42.632;23.378;2022-09-21T10:35:26;94394.59;;;14.82;44.04
7335;BME280;3708;42.632;23.378;2022-09-21T10:38:08;94384.97;;;14.74;44.02
7335;BME280;3708;42.632;23.378;2022-09-21T10:40:37;94390.75;;;15.10;42.98
7335;BME280;3708;42.632;23.378;2022-09-21T10:43:05;94389.81;;;15.03;43.40
7335;BME280;3708;42.632;23.378;2022-09-21T10:45:52;94379.66;;;15.55;41.97
7335;BME280;3708;42.632;23.378;2022-09-21T10:48:21;94383.97;;;14.94;43.36
7335;BME280;3708;42.632;23.378;2022-09-21T10:50:50;94375.03;;;14.67;42.70
7335;BME280;3708;42.632;23.378;2022-09-21T10:53:22;94357.88;;;15.23;41.37
7335;BME280;3708;42.632;23.378;2022-09-21T10:55:56;94367.97;;;15.37;41.21
7335;BME280;3708;42.632;23.378;2022-09-21T10:58:24;94357.00;;;16.12;40.16
7335;BME280;3708;42.632;23.378;2022-09-21T11:00:53;94357.44;;;16.14;39.64
7335;BME280;3708;42.632;23.378;2022-09-21T11:03:41;94357.28;;;16.48;38.27
7335;BME280;3708;42.632;23.378;2022-09-21T11:06:21;94359.34;;;16.36;37.85
7335;BME280;3708;42.632;23.378;2022-09-21T11:08:54;94352.00;;;17.46;36.48
7335;BME280;3708;42.632;23.378;2022-09-21T11:11:42;94372.16;;;16.75;37.76
7335;BME280;3708;42.632;23.378;2022-09-21T11:14:26;94352.47;;;16.31;38.48
7335;BME280;3708;42.632;23.378;2022-09-21T11:16:58;94361.28;;;15.59;39.51
7335;BME280;3708;42.632;23.378;2022-09-21T11:19:32;94364.97;;;15.04;40.82
7335;BME280;3708;42.632;23.378;2022-09-21T11:22:05;94354.09;;;14.90;41.81
7335;BME280;3708;42.632;23.378;2022-09-21T11:24:38;94355.88;;;15.36;40.47
7335;BME280;3708;42.632;23.378;2022-09-21T11:27:12;94351.75;;;15.54;39.90
7335;BME280;3708;42.632;23.378;2022-09-21T11:29:50;94344.47;;;15.67;39.10
7335;BME280;3708;42.632;23.378;2022-09-21T11:32:34;94352.78;;;16.07;38.43
7335;BME280;3708;42.632;23.378;2022-09-21T11:35:34;94343.38;;;16.74;37.28
7335;BME280;3708;42.632;23.378;2022-09-21T11:38:11;94326.81;;;16.77;36.98
7335;BME280;3708;42.632;23.378;2022-09-21T11:40:52;94334.53;;;16.89;36.99
7335;BME280;3708;42.632;23.378;2022-09-21T11:43:36;94345.44;;;16.84;37.02
7335;BME280;3708;42.632;23.378;2022-09-21T11:46:19;94354.75;;;16.33;37.61
7335;BME280;3708;42.632;23.378;2022-09-21T11:49:12;94347.47;;;16.49;37.74
7335;BME280;3708;42.632;23.378;2022-09-21T11:51:54;94357.72;;;15.51;38.30
7335;BME280;3708;42.632;23.378;2022-09-21T11:54:47;94358.97;;;15.76;37.89
7335;BME280;3708;42.632;23.378;2022-09-21T11:57:22;94341.13;;;15.89;37.51
7335;BME280;3708;42.632;23.378;2022-09-21T12:00:03;94360.72;;;15.88;39.67
7335;BME280;3708;42.632;23.378;2022-09-21T12:02:59;94360.91;;;15.98;42.31
7335;BME280;3708;42.632;23.378;2022-09-21T12:05:43;94373.94;;;15.69;43.18
7335;BME280;3708;42.632;23.378;2022-09-21T12:08:40;94366.88;;;15.57;44.26
7335;BME280;3708;42.632;23.378;2022-09-21T12:11:18;94366.34;;;16.06;43.45
7335;BME280;3708;42.632;23.378;2022-09-21T12:13:53;94379.91;;;16.04;43.66
7335;BME280;3708;42.632;23.378;2022-09-21T12:16:34;94380.19;;;15.80;44.03
7335;BME280;3708;42.632;23.378;2022-09-21T12:19:07;94395.38;;;15.48;45.42
7335;BME280;3708;42.632;23.378;2022-09-21T12:21:38;94394.56;;;15.13;46.15
7335;BME280;3708;42.632;23.378;2022-09-21T12:24:13;94381.06;;;15.87;44.84
7335;BME280;3708;42.632;23.378;2022-09-21T12:26:42;94389.19;;;16.36;43.20
7335;BME280;3708;42.632;23.378;2022-09-21T12:29:18;94384.28;;;16.80;42.60
7335;BME280;3708;42.632;23.378;2022-09-21T12:31:57;94374.50;;;17.07;41.84
7335;BME280;3708;42.632;23.378;2022-09-21T12:34:33;94383.09;;;17.00;42.00
7335;BME280;3708;42.632;23.378;2022-09-21T12:37:08;94376.66;;;16.75;42.19
7335;BME280;3708;42.632;23.378;2022-09-21T12:39:41;94380.16;;;17.05;41.55
7335;BME280;3708;42.632;23.378;2022-09-21T12:42:21;94389.78;;;17.17;41.16
7335;BME280;3708;42.632;23.378;2022-09-21T12:44:54;94386.13;;;16.53;42.10
7335;BME280;3708;42.632;23.378;2022-09-21T12:47:28;94381.81;;;16.26;42.59
7335;BME280;3708;42.632;23.378;2022-09-21T12:50:12;94385.94;;;16.04;42.98
7335;BME280;3708;42.632;23.378;2022-09-21T12:52:43;94387.06;;;16.03;43.30
7335;BME280;3708;42.632;23.378;2022-09-21T12:55:22;94382.19;;;15.67;43.98
7335;BME280;3708;42.632;23.378;2022-09-21T12:57:59;94375.38;;;16.04;43.56
7335;BME280;3708;42.632;23.378;2022-09-21T13:00:31;94379.16;;;16.03;43.41
7335;BME280;3708;42.632;23.378;2022-09-21T13:03:09;94371.47;;;16.82;42.39
7335;BME280;3708;42.632;23.378;2022-09-21T13:05:49;94379.00;;;17.03;40.30
7335;BME280;3708;42.632;23.378;2022-09-21T13:08:26;94371.91;;;16.00;43.08
7335;BME280;3708;42.632;23.378;2022-09-21T13:11:00;94372.34;;;16.44;42.08
7335;BME280;3708;42.632;23.378;2022-09-21T13:13:34;94361.75;;;16.44;42.01
7335;BME280;3708;42.632;23.378;2022-09-21T13:16:04;94370.72;;;16.17;42.63
7335;BME280;3708;42.632;23.378;2022-09-21T13:18:35;94370.22;;;16.12;42.89
7335;BME280;3708;42.632;23.378;2022-09-21T13:21:17;94368.13;;;16.21;42.95
7335;BME280;3708;42.632;23.378;2022-09-21T13:23:51;94379.00;;;16.57;42.41
7335;BME280;3708;42.632;23.378;2022-09-21T13:26:30;94374.09;;;16.82;41.63
7335;BME280;3708;42.632;23.378;2022-09-21T13:29:01;94368.59;;;16.91;41.39
7335;BME280;3708;42.632;23.378;2022-09-21T13:31:39;94368.69;;;16.30;42.78
7335;BME280;3708;42.632;23.378;2022-09-21T13:34:23;94368.06;;;15.98;43.15
7335;BME280;3708;42.632;23.378;2022-09-21T13:40:29;94359.78;;;16.83;41.32
7335;BME280;3708;42.632;23.378;2022-09-21T13:43:21;94360.56;;;15.81;42.02